Time;durP1;ratioP1;P1;durP2;ratioP2;P2;SDS_P1;SDS_P2;PMS_P1;PMS_P2;Temp;Humidity;BMP_temperature;BMP_pressure;BME280_temperature;BME280_humidity;BME280_pressure;Samples;Min_cycle;Max_cycle;Signal;HPM_P1;HPM_P2
2023/09/03 00:01:56;;;;;;;;;;;;;;;;;;5055950;28;19909;-23
2023/09/03 00:04:22;;;;;;;;;;;;;;;;;;5056031;28;19920;-22
2023/09/03 00:06:48;;;;;;;;;;;;;;;;;;5055722;28;19921;-28
2023/09/03 00:09:16;;;;;;;;;;;;;;;;;;5055910;28;19913;-26
2023/09/03 00:11:42;;;;;;;;;;;;;;;;;;5054959;28;19909;-23
2023/09/03 00:14:08;;;;;;;;;;;;;;;;;;5055712;28;20000;-24
2023/09/03 00:16:34;;;;;;;;;;;;;;;;;;5055806;28;20038;-27
2023/09/03 00:19:00;;;;;;;;;;;;;;;;;;5055965;28;20340;-30
2023/09/03 00:21:26;;;;;;;;;;;;;;;;;;5055726;28;20205;-25
2023/09/03 00:23:52;;;;;;;;;;;;;;;;;;5055554;28;20299;-25
2023/09/03 00:26:19;;;;;;;;;;;;;;;;;;5055785;28;19927;-26
2023/09/03 00:28:45;;;;;;;;;;;;;;;;;;5055762;28;20297;-26
2023/09/03 00:31:11;;;;;;;;;;;;;;;;;;5055458;28;19978;-26
2023/09/03 00:33:37;;;;;;;;;;;;;;;;;;5055579;28;19909;-23
2023/09/03 00:36:03;;;;;;;;;;;;;;;;;;5055322;28;19956;-27
2023/09/03 00:38:29;;;;;;;;;;;;;;;;;;5055610;28;19944;-25
2023/09/03 00:40:55;;;;;;;;;;;;;;;;;;5055335;28;19936;-28
2023/09/03 00:43:20;;;;;;;;;;;;;;;;;;5055214;28;19915;-26
2023/09/03 00:45:46;;;;;;;;;;;;;;;;;;5055510;28;20299;-25
2023/09/03 00:48:12;;;;;;;;;;;;;;;;;;5055172;28;20323;-29
2023/09/03 00:50:38;;;;;;;;;;;;;;;;;;5055154;28;19967;-25
2023/09/03 00:53:04;;;;;;;;;;;;;;;;;;5055077;28;19913;-25
2023/09/03 00:55:32;;;;;;;;;;;;;;;;;;5055232;28;19970;-26
2023/09/03 00:57:58;;;;;;;;;;;;;;;;;;5055304;28;20233;-26
2023/09/03 01:00:24;;;;;;;;;;;;;;;;;;5055262;28;19920;-24
2023/09/03 01:02:50;;;;;;;;;;;;;;;;;;5054885;28;20311;-25
2023/09/03 01:05:17;;;;;;;;;;;;;;;;;;5054964;28;19990;-24
2023/09/03 01:07:43;;;;;;;;;;;;;;;;;;5054818;28;19920;-26
2023/09/03 01:10:09;;;;;;;;;;;;;;;;;;5054879;28;19991;-26
2023/09/03 01:12:35;;;;;;;;;;;;;;;;;;5054784;28;19934;-25
2023/09/03 01:15:01;;;;;;;;;;;;;;;;;;5054981;28;20389;-23
2023/09/03 01:17:27;;;;;;;;;;;;;;;;;;5054785;28;19913;-28
2023/09/03 01:19:53;;;;;;;;;;;;;;;;;;5054978;28;19916;-26
2023/09/03 01:22:19;;;;;;;;;;;;;;;;;;5054606;28;19916;-22
2023/09/03 01:24:45;;;;;;;;;;;;;;;;;;5054484;28;19913;-27
2023/09/03 01:27:11;;;;;;;;;;;;;;;;;;5054623;28;19909;-24
2023/09/03 01:29:36;;;;;;;;;;;;;;;;;;5054913;28;19908;-23
2023/09/03 01:32:02;;;;;;;;;;;;;;;;;;5054494;28;19909;-25
2023/09/03 01:34:28;;;;;;;;;;;;;;;;;;5054546;28;19920;-28
2023/09/03 01:36:55;;;;;;;;;;;;;;;;;;5054873;28;19961;-26
2023/09/03 01:39:21;;;;;;;;;;;;;;;;;;5054490;28;19929;-22
2023/09/03 01:41:47;;;;;;;;;;;;;;;;;;5054363;28;19913;-26
2023/09/03 01:44:13;;;;;;;;;;;;;;;;;;5054489;28;19909;-29
2023/09/03 01:46:41;;;;;;;;;;;;;;;;;;5054515;28;20061;-22
2023/09/03 01:49:07;;;;;;;;;;;;;;;;;;5054767;28;19909;-29
2023/09/03 01:51:33;;;;;;;;;;;;;;;;;;5054488;28;19909;-26
2023/09/03 01:53:59;;;;;;;;;;;;;;;;;;5053377;28;19908;-22
2023/09/03 01:56:25;;;;;;;;;;;;;;;;;;5054308;28;19913;-23
2023/09/03 01:58:51;;;;;;;;;;;;;;;;;;5054397;28;19909;-28
2023/09/03 02:01:17;;;;;;;;;;;;;;;;;;5054347;28;19978;-24
2023/09/03 02:03:45;;;;;;;;;;;;;;;;;;5054268;28;20302;-25
2023/09/03 02:06:11;;;;;;;;;;;;;;;;;;5054296;28;20251;-23
2023/09/03 02:08:37;;;;;;;;;;;;;;;;;;5054287;28;19909;-24
2023/09/03 02:11:03;;;;;;;;;;;;;;;;;;5054506;28;20027;-22
2023/09/03 02:13:29;;;;;;;;;;;;;;;;;;5053637;28;19909;-24
2023/09/03 02:15:56;;;;;;;;;;;;;;;;;;5054159;28;20363;-26
2023/09/03 02:18:22;;;;;;;;;;;;;;;;;;5054477;28;19979;-25
2023/09/03 02:20:48;;;;;;;;;;;;;;;;;;5054064;28;19913;-27
2023/09/03 02:23:14;;;;;;;;;;;;;;;;;;5054172;28;19916;-25
2023/09/03 02:25:40;;;;;;;;;;;;;;;;;;5054337;28;19908;-33
2023/09/03 02:28:07;;;;;;;;;;;;;;;;;;5053108;28;19966;-22
2023/09/03 02:30:33;;;;;;;;;;;;;;;;;;5054388;28;19909;-25
2023/09/03 02:32:59;;;;;;;;;;;;;;;;;;5053951;28;19932;-22
2023/09/03 02:35:25;;;;;;;;;;;;;;;;;;5055735;28;20324;-27
2023/09/03 02:37:51;;;;;;;;;;;;;;;;;;5057560;28;20339;-22
2023/09/03 02:40:17;;;;;;;;;;;;;;;;;;5057851;28;19909;-29
2023/09/03 02:42:42;;;;;;;;;;;;;;;;;;5057472;28;19974;-26
2023/09/03 02:45:08;;;;;;;;;;;;;;;;;;5057477;28;19908;-25
2023/09/03 02:47:34;;;;;;;;;;;;;;;;;;5057468;28;19921;-24
2023/09/03 02:50:00;;;;;;;;;;;;;;;;;;5057697;28;19908;-24
2023/09/03 02:52:26;;;;;;;;;;;;;;;;;;5057281;28;19909;-25
2023/09/03 02:54:52;;;;;;;;;;;;;;;;;;5057519;28;20009;-31
2023/09/03 02:57:18;;;;;;;;;;;;;;;;;;5057588;28;20247;-23
2023/09/03 02:59:44;;;;;;;;;;;;;;;;;;5057238;28;20233;-24
2023/09/03 03:02:10;;;;;;;;;;;;;;;;;;5057343;28;19909;-27
2023/09/03 03:04:36;;;;;;;;;;;;;;;;;;5057180;28;19915;-30
2023/09/03 03:07:02;;;;;;;;;;;;;;;;;;5055889;28;20347;-26
2023/09/03 03:09:28;;;;;;;;;;;;;;;;;;5057064;28;19999;-27
2023/09/03 03:11:54;;;;;;;;;;;;;;;;;;5057232;28;19913;-28
2023/09/03 03:14:20;;;;;;;;;;;;;;;;;;5056965;28;19999;-28
2023/09/03 03:16:46;;;;;;;;;;;;;;;;;;5057172;28;20001;-23
2023/09/03 03:19:12;;;;;;;;;;;;;;;;;;5056882;28;19916;-27
2023/09/03 03:21:38;;;;;;;;;;;;;;;;;;5056841;28;19909;-25
2023/09/03 03:24:05;;;;;;;;;;;;;;;;;;5056709;28;20023;-27
2023/09/03 03:26:32;;;;;;;;;;;;;;;;;;5056742;28;19955;-22
2023/09/03 03:28:58;;;;;;;;;;;;;;;;;;5056690;28;19958;-28
2023/09/03 03:31:24;;;;;;;;;;;;;;;;;;5055653;28;20244;-24
2023/09/03 03:33:51;;;;;;;;;;;;;;;;;;5056926;28;19966;-23
2023/09/03 03:36:17;;;;;;;;;;;;;;;;;;5056749;28;19917;-24
2023/09/03 03:38:43;;;;;;;;;;;;;;;;;;5056508;28;19936;-26
2023/09/03 03:41:09;;;;;;;;;;;;;;;;;;5056717;28;19952;-22
2023/09/03 03:43:35;;;;;;;;;;;;;;;;;;5056648;28;19966;-22
2023/09/03 03:46:01;;;;;;;;;;;;;;;;;;5056302;28;19909;-21
2023/09/03 03:48:27;;;;;;;;;;;;;;;;;;5056320;28;19920;-24
2023/09/03 03:50:52;;;;;;;;;;;;;;;;;;5056538;28;19908;-25
2023/09/03 03:53:18;;;;;;;;;;;;;;;;;;5056163;28;20005;-24
2023/09/03 03:55:44;;;;;;;;;;;;;;;;;;5056084;28;19916;-22
2023/09/03 03:58:10;;;;;;;;;;;;;;;;;;5056374;28;19909;-25
2023/09/03 04:00:36;;;;;;;;;;;;;;;;;;5056108;28;19909;-21
2023/09/03 04:03:02;;;;;;;;;;;;;;;;;;5056089;28;19909;-26
2023/09/03 04:05:28;;;;;;;;;;;;;;;;;;5056032;28;20409;-23
2023/09/03 04:07:54;;;;;;;;;;;;;;;;;;5055672;28;20038;-26
2023/09/03 04:10:20;;;;;;;;;;;;;;;;;;5055850;28;19908;-23
2023/09/03 04:12:46;;;;;;;;;;;;;;;;;;5055904;28;20003;-25
2023/09/03 04:15:12;;;;;;;;;;;;;;;;;;5055706;28;20286;-23
2023/09/03 04:17:38;;;;;;;;;;;;;;;;;;5056505;28;19909;-26
2023/09/03 04:20:05;;;;;;;;;;;;;;;;;;5055719;28;19943;-28
2023/09/03 04:22:31;;;;;;;;;;;;;;;;;;5055762;28;19937;-24
2023/09/03 04:24:57;;;;;;;;;;;;;;;;;;5055894;28;19908;-26
2023/09/03 04:27:23;;;;;;;;;;;;;;;;;;5055855;28;19947;-26
2023/09/03 04:29:49;;;;;;;;;;;;;;;;;;5055579;28;19909;-27
2023/09/03 04:32:15;;;;;;;;;;;;;;;;;;5055563;28;19915;-24
2023/09/03 04:34:41;;;;;;;;;;;;;;;;;;5055605;28;19912;-24
2023/09/03 04:37:07;;;;;;;;;;;;;;;;;;5055329;28;19915;-24
2023/09/03 04:39:33;;;;;;;;;;;;;;;;;;5055365;28;19939;-30
2023/09/03 04:41:58;;;;;;;;;;;;;;;;;;5055205;28;19909;-24
2023/09/03 04:44:24;;;;;;;;;;;;;;;;;;5055612;28;19913;-25
2023/09/03 04:46:50;;;;;;;;;;;;;;;;;;5055564;28;19963;-29
2023/09/03 04:49:16;;;;;;;;;;;;;;;;;;5055466;28;20339;-24
2023/09/03 04:51:43;;;;;;;;;;;;;;;;;;5055435;28;19909;-25
2023/09/03 04:54:09;;;;;;;;;;;;;;;;;;5055006;28;19943;-24
2023/09/03 04:56:35;;;;;;;;;;;;;;;;;;5055010;28;20290;-22
2023/09/03 04:59:01;;;;;;;;;;;;;;;;;;5054873;28;19909;-26
2023/09/03 05:01:26;;;;;;;;;;;;;;;;;;5055015;28;19940;-28
2023/09/03 05:03:52;;;;;;;;;;;;;;;;;;5054934;28;19967;-23
2023/09/03 05:06:18;;;;;;;;;;;;;;;;;;5054920;28;19917;-22
2023/09/03 05:08:45;;;;;;;;;;;;;;;;;;5054945;28;19913;-26
2023/09/03 05:11:15;;;;;;;;;;;;;;;;;;5054906;28;19963;-25
2023/09/03 05:13:41;;;;;;;;;;;;;;;;;;5055048;28;19967;-23
2023/09/03 05:16:07;;;;;;;;;;;;;;;;;;5054734;28;19913;-25
2023/09/03 05:18:34;;;;;;;;;;;;;;;;;;5054809;28;19909;-24
2023/09/03 05:21:00;;;;;;;;;;;;;;;;;;5054961;28;19909;-21
2023/09/03 05:23:26;;;;;;;;;;;;;;;;;;5054621;28;19909;-23
2023/09/03 05:25:52;;;;;;;;;;;;;;;;;;5054951;28;20331;-25
2023/09/03 05:28:17;;;;;;;;;;;;;;;;;;5054638;28;20354;-28
2023/09/03 05:30:43;;;;;;;;;;;;;;;;;;5054599;28;19909;-24
2023/09/03 05:33:09;;;;;;;;;;;;;;;;;;5054549;28;19919;-22
2023/09/03 05:35:35;;;;;;;;;;;;;;;;;;5054535;28;19974;-29
2023/09/03 05:38:01;;;;;;;;;;;;;;;;;;5054615;28;19908;-28
2023/09/03 05:40:27;;;;;;;;;;;;;;;;;;5054557;28;20015;-29
2023/09/03 05:42:53;;;;;;;;;;;;;;;;;;5054745;28;19909;-25
2023/09/03 05:45:19;;;;;;;;;;;;;;;;;;5054523;28;19932;-25
2023/09/03 05:47:45;;;;;;;;;;;;;;;;;;5054524;28;20267;-26
2023/09/03 05:50:11;;;;;;;;;;;;;;;;;;5054466;28;19909;-26
2023/09/03 05:52:37;;;;;;;;;;;;;;;;;;5054605;28;20255;-29
2023/09/03 05:55:03;;;;;;;;;;;;;;;;;;5054383;28;20251;-25
2023/09/03 05:57:29;;;;;;;;;;;;;;;;;;5054354;28;20288;-22
2023/09/03 05:59:55;;;;;;;;;;;;;;;;;;5054609;28;19909;-26
2023/09/03 06:02:22;;;;;;;;;;;;;;;;;;5054567;28;19909;-23
2023/09/03 06:04:48;;;;;;;;;;;;;;;;;;5054604;28;19939;-29
2023/09/03 06:07:14;;;;;;;;;;;;;;;;;;5054047;28;19928;-26
2023/09/03 06:09:40;;;;;;;;;;;;;;;;;;5054828;28;19909;-23
2023/09/03 06:12:06;;;;;;;;;;;;;;;;;;5058323;28;20249;-23
2023/09/03 06:14:32;;;;;;;;;;;;;;;;;;5058031;28;19909;-26
2023/09/03 06:16:57;;;;;;;;;;;;;;;;;;5058032;28;19939;-26
2023/09/03 06:19:23;;;;;;;;;;;;;;;;;;5057990;28;20196;-28
2023/09/03 06:21:49;;;;;;;;;;;;;;;;;;5058167;28;20285;-24
2023/09/03 06:24:15;;;;;;;;;;;;;;;;;;5058225;28;20360;-25
2023/09/03 06:26:41;;;;;;;;;;;;;;;;;;5058159;28;20332;-24
2023/09/03 06:29:07;;;;;;;;;;;;;;;;;;5057839;28;19916;-28
2023/09/03 06:31:33;;;;;;;;;;;;;;;;;;5058046;28;19909;-28
2023/09/03 06:33:59;;;;;;;;;;;;;;;;;;5057651;28;19948;-29
2023/09/03 06:36:25;;;;;;;;;;;;;;;;;;5057885;28;19913;-28
2023/09/03 06:38:51;;;;;;;;;;;;;;;;;;5056576;28;20319;-24
2023/09/03 06:41:17;;;;;;;;;;;;;;;;;;5057610;28;19955;-25
2023/09/03 06:43:43;;;;;;;;;;;;;;;;;;5057490;28;20332;-21
2023/09/03 06:46:09;;;;;;;;;;;;;;;;;;5057551;28;19909;-24
2023/09/03 06:48:35;;;;;;;;;;;;;;;;;;5057779;28;19999;-23
2023/09/03 06:51:01;;;;;;;;;;;;;;;;;;5057515;28;20009;-27
2023/09/03 06:53:27;;;;;;;;;;;;;;;;;;5056344;28;19909;-22
2023/09/03 06:55:53;;;;;;;;;;;;;;;;;;5057253;28;20336;-28
2023/09/03 06:58:19;;;;;;;;;;;;;;;;;;5057599;28;19909;-23
2023/09/03 07:00:46;;;;;;;;;;;;;;;;;;5057275;28;20291;-27
2023/09/03 07:03:13;;;;;;;;;;;;;;;;;;5057086;28;19958;-29
2023/09/03 07:05:39;;;;;;;;;;;;;;;;;;5057360;28;19925;-28
2023/09/03 07:08:05;;;;;;;;;;;;;;;;;;5056918;28;20306;-23
2023/09/03 07:10:31;;;;;;;;;;;;;;;;;;5057028;28;19971;-30
2023/09/03 07:12:57;;;;;;;;;;;;;;;;;;5056981;28;19939;-25
2023/09/03 07:15:23;;;;;;;;;;;;;;;;;;5057207;28;20331;-25
2023/09/03 07:17:49;;;;;;;;;;;;;;;;;;5056910;28;20408;-22
2023/09/03 07:20:15;;;;;;;;;;;;;;;;;;5056717;28;20386;-25
2023/09/03 07:22:41;;;;;;;;;;;;;;;;;;5056539;28;19936;-22
2023/09/03 07:25:07;;;;;;;;;;;;;;;;;;5057083;28;19936;-23
2023/09/03 07:27:33;;;;;;;;;;;;;;;;;;5056748;28;19909;-26
2023/09/03 07:29:59;;;;;;;;;;;;;;;;;;5056666;28;20343;-23
2023/09/03 07:32:25;;;;;;;;;;;;;;;;;;5056821;28;19939;-21
2023/09/03 07:34:51;;;;;;;;;;;;;;;;;;5055578;28;19913;-23
2023/09/03 07:37:17;;;;;;;;;;;;;;;;;;5056523;28;19913;-31
2023/09/03 07:39:43;;;;;;;;;;;;;;;;;;5055565;28;20332;-25
2023/09/03 07:42:09;;;;;;;;;;;;;;;;;;5056837;28;19916;-30
2023/09/03 07:44:35;;;;;;;;;;;;;;;;;;5056421;28;20335;-30
2023/09/03 07:47:01;;;;;;;;;;;;;;;;;;5056394;28;20255;-27
2023/09/03 07:49:27;;;;;;;;;;;;;;;;;;5056551;28;20244;-28
2023/09/03 07:51:53;;;;;;;;;;;;;;;;;;5056388;28;19962;-28
2023/09/03 07:54:19;;;;;;;;;;;;;;;;;;5057031;28;19913;-23
2023/09/03 07:56:45;;;;;;;;;;;;;;;;;;5056027;28;19923;-25
2023/09/03 07:59:11;;;;;;;;;;;;;;;;;;5056421;28;19909;-25
2023/09/03 08:01:37;;;;;;;;;;;;;;;;;;5056356;28;20229;-29
2023/09/03 08:04:03;;;;;;;;;;;;;;;;;;5055972;28;19909;-23
2023/09/03 08:06:29;;;;;;;;;;;;;;;;;;5056009;28;19928;-22
2023/09/03 08:08:55;;;;;;;;;;;;;;;;;;5055948;28;20000;-24
2023/09/03 08:11:21;;;;;;;;;;;;;;;;;;5056178;28;19909;-22
2023/09/03 08:13:47;;;;;;;;;;;;;;;;;;5055836;28;19958;-25
2023/09/03 08:16:13;;;;;;;;;;;;;;;;;;5055750;28;19913;-26
2023/09/03 08:18:39;;;;;;;;;;;;;;;;;;5055989;28;20205;-26
2023/09/03 08:21:05;;;;;;;;;;;;;;;;;;5055668;28;19913;-25
2023/09/03 08:23:31;;;;;;;;;;;;;;;;;;5055614;28;19931;-24
2023/09/03 08:25:57;;;;;;;;;;;;;;;;;;5055659;28;19920;-24
2023/09/03 08:28:23;;;;;;;;;;;;;;;;;;5055602;28;19921;-25
2023/09/03 08:30:48;;;;;;;;;;;;;;;;;;5055816;28;19908;-23
2023/09/03 08:33:14;;;;;;;;;;;;;;;;;;5055477;28;19971;-23
2023/09/03 08:35:40;;;;;;;;;;;;;;;;;;5055399;28;19913;-21
2023/09/03 08:38:06;;;;;;;;;;;;;;;;;;5055418;28;19909;-25
2023/09/03 08:40:33;;;;;;;;;;;;;;;;;;5055418;28;19912;-23
2023/09/03 08:42:59;;;;;;;;;;;;;;;;;;5055169;28;19919;-27
2023/09/03 08:45:25;;;;;;;;;;;;;;;;;;5055294;28;20015;-29
2023/09/03 08:47:51;;;;;;;;;;;;;;;;;;5055512;28;19908;-27
2023/09/03 08:50:17;;;;;;;;;;;;;;;;;;5055441;28;20200;-25
2023/09/03 08:52:43;;;;;;;;;;;;;;;;;;5055123;28;19913;-25
2023/09/03 08:55:09;;;;;;;;;;;;;;;;;;5055066;28;19923;-22
2023/09/03 08:57:35;;;;;;;;;;;;;;;;;;5055117;28;20229;-30
2023/09/03 09:00:01;;;;;;;;;;;;;;;;;;5055059;28;20250;-24
2023/09/03 09:02:27;;;;;;;;;;;;;;;;;;5054949;28;19920;-24
2023/09/03 09:04:53;;;;;;;;;;;;;;;;;;5055010;28;20248;-27
2023/09/03 09:07:19;;;;;;;;;;;;;;;;;;5054734;28;19921;-28
2023/09/03 09:09:45;;;;;;;;;;;;;;;;;;5054902;28;19912;-24
2023/09/03 09:12:11;;;;;;;;;;;;;;;;;;5054788;28;20299;-26
2023/09/03 09:14:37;;;;;;;;;;;;;;;;;;5055012;28;20015;-21
2023/09/03 09:17:03;;;;;;;;;;;;;;;;;;5054792;28;19995;-26
2023/09/03 09:19:29;;;;;;;;;;;;;;;;;;5054805;28;20324;-25
2023/09/03 09:21:55;;;;;;;;;;;;;;;;;;5055331;28;19909;-22
2023/09/03 09:24:21;;;;;;;;;;;;;;;;;;5054971;28;19909;-24
2023/09/03 09:26:47;;;;;;;;;;;;;;;;;;5054687;28;20000;-26
2023/09/03 09:29:13;;;;;;;;;;;;;;;;;;5054945;28;20046;-22
2023/09/03 09:31:39;;;;;;;;;;;;;;;;;;5054651;28;20014;-25
2023/09/03 09:34:05;;;;;;;;;;;;;;;;;;5054826;28;19974;-24
2023/09/03 09:36:31;;;;;;;;;;;;;;;;;;5054499;28;20340;-24
2023/09/03 09:38:57;;;;;;;;;;;;;;;;;;5054567;28;19932;-22
2023/09/03 09:41:23;;;;;;;;;;;;;;;;;;5054549;28;19909;-26
2023/09/03 09:43:49;;;;;;;;;;;;;;;;;;5055138;28;20003;-25
2023/09/03 09:46:15;;;;;;;;;;;;;;;;;;5058916;28;20006;-22
2023/09/03 09:48:41;;;;;;;;;;;;;;;;;;5058617;28;19948;-23
2023/09/03 09:51:07;;;;;;;;;;;;;;;;;;5058604;28;20026;-27
2023/09/03 09:53:33;;;;;;;;;;;;;;;;;;5058450;28;19959;-26
2023/09/03 09:55:59;;;;;;;;;;;;;;;;;;5058187;28;19913;-26
2023/09/03 09:58:25;;;;;;;;;;;;;;;;;;5058466;28;19935;-24
2023/09/03 10:00:51;;;;;;;;;;;;;;;;;;5057451;28;19943;-27
2023/09/03 10:03:17;;;;;;;;;;;;;;;;;;5057241;28;19976;-29
2023/09/03 10:05:43;;;;;;;;;;;;;;;;;;5058426;28;19964;-26
2023/09/03 10:08:11;;;;;;;;;;;;;;;;;;5057479;28;21306;-23
2023/09/03 10:10:38;;;;;;;;;;;;;;;;;;5058240;28;19944;-23
2023/09/03 10:13:06;;;;;;;;;;;;;;;;;;5058366;28;19908;-23
2023/09/03 10:15:32;;;;;;;;;;;;;;;;;;5058009;28;19913;-24
2023/09/03 10:17:59;;;;;;;;;;;;;;;;;;5058080;28;19920;-25
2023/09/03 10:20:24;;;;;;;;;;;;;;;;;;5058305;28;19962;-24
2023/09/03 10:22:53;;;;;;;;;;;;;;;;;;5057898;28;20255;-26
2023/09/03 10:25:19;;;;;;;;;;;;;;;;;;5058243;28;19912;-31
2023/09/03 10:27:45;;;;;;;;;;;;;;;;;;5056848;28;19969;-25
2023/09/03 10:30:11;;;;;;;;;;;;;;;;;;5057898;28;19908;-23
2023/09/03 10:32:37;;;;;;;;;;;;;;;;;;5057928;28;19916;-22
2023/09/03 10:35:03;;;;;;;;;;;;;;;;;;5057703;28;19913;-22
2023/09/03 10:37:29;;;;;;;;;;;;;;;;;;5057739;28;20252;-26
2023/09/03 10:39:55;;;;;;;;;;;;;;;;;;5057663;28;20351;-24
2023/09/03 10:42:21;;;;;;;;;;;;;;;;;;5057572;28;20283;-23
2023/09/03 10:44:47;;;;;;;;;;;;;;;;;;5057607;28;19944;-27
2023/09/03 10:47:17;;;;;;;;;;;;;;;;;;5057510;28;20326;-28
2023/09/03 10:49:43;;;;;;;;;;;;;;;;;;5057767;28;19909;-29
2023/09/03 10:52:09;;;;;;;;;;;;;;;;;;5056402;28;19909;-22
2023/09/03 10:54:35;;;;;;;;;;;;;;;;;;5057377;28;19913;-25
2023/09/03 10:57:01;;;;;;;;;;;;;;;;;;5056804;28;19999;-23
2023/09/03 10:59:27;;;;;;;;;;;;;;;;;;5057341;28;20332;-25
2023/09/03 11:01:52;;;;;;;;;;;;;;;;;;5057164;28;19908;-27
2023/09/03 11:04:18;;;;;;;;;;;;;;;;;;5057511;28;19962;-26
2023/09/03 11:06:44;;;;;;;;;;;;;;;;;;5056955;28;19925;-26
2023/09/03 11:09:10;;;;;;;;;;;;;;;;;;5057391;28;20332;-21
2023/09/03 11:11:38;;;;;;;;;;;;;;;;;;5057085;28;20268;-27
2023/09/03 11:14:04;;;;;;;;;;;;;;;;;;5056989;28;19914;-23
2023/09/03 11:16:30;;;;;;;;;;;;;;;;;;5056972;28;20238;-28
2023/09/03 11:18:56;;;;;;;;;;;;;;;;;;5056961;28;19908;-28
2023/09/03 11:21:22;;;;;;;;;;;;;;;;;;5055988;28;20443;-27
2023/09/03 11:23:47;;;;;;;;;;;;;;;;;;5057081;28;19999;-25
2023/09/03 11:26:13;;;;;;;;;;;;;;;;;;5056841;28;19909;-28
2023/09/03 11:28:39;;;;;;;;;;;;;;;;;;5057037;28;20354;-27
2023/09/03 11:31:05;;;;;;;;;;;;;;;;;;5056681;28;20239;-21
2023/09/03 11:33:31;;;;;;;;;;;;;;;;;;5056758;28;19909;-21
2023/09/03 11:35:59;;;;;;;;;;;;;;;;;;5056547;28;20253;-23
2023/09/03 11:38:29;;;;;;;;;;;;;;;;;;5057032;28;19951;-25
2023/09/03 11:40:55;;;;;;;;;;;;;;;;;;5056501;28;19912;-27
2023/09/03 11:43:21;;;;;;;;;;;;;;;;;;5056455;28;19909;-29
2023/09/03 11:45:47;;;;;;;;;;;;;;;;;;5056430;28;20251;-24
2023/09/03 11:48:13;;;;;;;;;;;;;;;;;;5056331;28;19909;-25
2023/09/03 11:50:39;;;;;;;;;;;;;;;;;;5056379;28;19909;-28
2023/09/03 11:53:05;;;;;;;;;;;;;;;;;;5056451;28;19916;-25
2023/09/03 11:55:31;;;;;;;;;;;;;;;;;;5056198;28;19912;-27
2023/09/03 11:57:57;;;;;;;;;;;;;;;;;;5056186;28;19919;-25
2023/09/03 12:00:23;;;;;;;;;;;;;;;;;;5056419;28;19963;-22
2023/09/03 12:02:49;;;;;;;;;;;;;;;;;;5056086;28;19915;-27
2023/09/03 12:05:15;;;;;;;;;;;;;;;;;;5056039;28;19908;-26
2023/09/03 12:07:41;;;;;;;;;;;;;;;;;;5054797;28;19975;-24
2023/09/03 12:10:07;;;;;;;;;;;;;;;;;;5056259;28;20320;-22
2023/09/03 12:12:33;;;;;;;;;;;;;;;;;;5055816;28;19909;-28
2023/09/03 12:14:59;;;;;;;;;;;;;;;;;;5056097;28;19920;-20
2023/09/03 12:17:25;;;;;;;;;;;;;;;;;;5055855;28;19912;-26
2023/09/03 12:19:51;;;;;;;;;;;;;;;;;;5056120;28;19908;-31
2023/09/03 12:22:19;;;;;;;;;;;;;;;;;;5055681;28;19908;-23
2023/09/03 12:24:44;;;;;;;;;;;;;;;;;;5055687;28;19913;-30
2023/09/03 12:27:10;;;;;;;;;;;;;;;;;;5055849;28;19908;-29
2023/09/03 12:29:37;;;;;;;;;;;;;;;;;;5055607;28;19915;-27
2023/09/03 12:32:03;;;;;;;;;;;;;;;;;;5055709;28;19916;-28
2023/09/03 12:34:29;;;;;;;;;;;;;;;;;;5055833;28;20267;-29
2023/09/03 12:36:56;;;;;;;;;;;;;;;;;;5055393;28;19967;-25
2023/09/03 12:39:22;;;;;;;;;;;;;;;;;;5055659;28;20285;-29
2023/09/03 12:41:48;;;;;;;;;;;;;;;;;;5055332;28;19966;-28
2023/09/03 12:44:15;;;;;;;;;;;;;;;;;;5055330;28;19920;-27
2023/09/03 12:46:42;;;;;;;;;;;;;;;;;;5055267;28;19909;-26
2023/09/03 12:49:08;;;;;;;;;;;;;;;;;;5055189;28;19908;-20
2023/09/03 12:51:37;;;;;;;;;;;;;;;;;;5055176;28;19913;-25
2023/09/03 12:54:04;;;;;;;;;;;;;;;;;;5055396;28;20384;-28
2023/09/03 12:56:30;;;;;;;;;;;;;;;;;;5055345;28;19942;-22
2023/09/03 12:58:57;;;;;;;;;;;;;;;;;;5054078;28;20396;-26
2023/09/03 13:01:23;;;;;;;;;;;;;;;;;;5055366;28;19909;-24
2023/09/03 13:03:49;;;;;;;;;;;;;;;;;;5055213;28;20312;-23
2023/09/03 13:06:15;;;;;;;;;;;;;;;;;;5054765;28;19987;-20
2023/09/03 13:08:43;;;;;;;;;;;;;;;;;;5055007;28;19916;-25
2023/09/03 13:11:09;;;;;;;;;;;;;;;;;;5054817;28;19915;-23
2023/09/03 13:13:35;;;;;;;;;;;;;;;;;;5055056;28;20003;-25
2023/09/03 13:16:03;;;;;;;;;;;;;;;;;;5054992;28;19917;-24
2023/09/03 13:18:29;;;;;;;;;;;;;;;;;;5054438;28;19909;-30
2023/09/03 13:20:56;;;;;;;;;;;;;;;;;;5055074;28;20007;-30
2023/09/03 13:23:22;;;;;;;;;;;;;;;;;;5054700;28;19935;-22
2023/09/03 13:25:47;;;;;;;;;;;;;;;;;;5055014;28;19921;-23
2023/09/03 13:28:13;;;;;;;;;;;;;;;;;;5054747;28;19913;-31
2023/09/03 13:30:39;;;;;;;;;;;;;;;;;;5054691;28;19909;-20
2023/09/03 13:33:06;;;;;;;;;;;;;;;;;;5054871;28;19909;-24
2023/09/03 13:35:32;;;;;;;;;;;;;;;;;;5054854;28;19921;-30
2023/09/03 13:37:58;;;;;;;;;;;;;;;;;;5054564;28;20225;-27
2023/09/03 13:40:23;;;;;;;;;;;;;;;;;;5054840;28;19909;-25
2023/09/03 13:42:49;;;;;;;;;;;;;;;;;;5053499;28;19913;-24
2023/09/03 13:45:15;;;;;;;;;;;;;;;;;;5054582;28;19920;-23
2023/09/03 13:47:41;;;;;;;;;;;;;;;;;;5054506;28;19916;-26
2023/09/03 13:50:07;;;;;;;;;;;;;;;;;;5054730;28;19919;-25
2023/09/03 13:52:33;;;;;;;;;;;;;;;;;;5054644;28;19974;-26
2023/09/03 13:54:59;;;;;;;;;;;;;;;;;;5054645;28;19909;-24
2023/09/03 13:57:25;;;;;;;;;;;;;;;;;;5054481;28;19908;-24
2023/09/03 13:59:51;;;;;;;;;;;;;;;;;;5054430;28;20299;-24
2023/09/03 14:02:17;;;;;;;;;;;;;;;;;;5054292;28;19909;-24
2023/09/03 14:04:43;;;;;;;;;;;;;;;;;;5053407;28;19960;-22
2023/09/03 14:07:09;;;;;;;;;;;;;;;;;;5054272;28;19921;-30
2023/09/03 14:09:35;;;;;;;;;;;;;;;;;;5054596;28;20007;-26
2023/09/03 14:12:01;;;;;;;;;;;;;;;;;;5054254;28;19934;-28
2023/09/03 14:14:27;;;;;;;;;;;;;;;;;;5054294;28;19909;-25
2023/09/03 14:16:53;;;;;;;;;;;;;;;;;;5054417;28;19912;-27
2023/09/03 14:19:19;;;;;;;;;;;;;;;;;;5054158;28;19954;-28
2023/09/03 14:21:45;;;;;;;;;;;;;;;;;;5054199;28;19941;-25
2023/09/03 14:24:11;;;;;;;;;;;;;;;;;;5054117;28;20330;-22
2023/09/03 14:26:37;;;;;;;;;;;;;;;;;;5054068;28;19909;-25
2023/09/03 14:29:09;;;;;;;;;;;;;;;;;;5053164;28;19913;-22
2023/09/03 14:31:34;;;;;;;;;;;;;;;;;;5055912;28;19913;-29
2023/09/03 14:34:00;;;;;;;;;;;;;;;;;;5057760;28;19908;-27
2023/09/03 14:36:26;;;;;;;;;;;;;;;;;;5057701;28;19971;-31
2023/09/03 14:38:52;;;;;;;;;;;;;;;;;;5057774;28;19917;-25
2023/09/03 14:41:18;;;;;;;;;;;;;;;;;;5057931;28;20454;-22
2023/09/03 14:43:44;;;;;;;;;;;;;;;;;;5057596;28;19970;-28
2023/09/03 14:46:10;;;;;;;;;;;;;;;;;;5056597;28;20053;-23
2023/09/03 14:48:36;;;;;;;;;;;;;;;;;;5057610;28;20308;-26
2023/09/03 14:51:03;;;;;;;;;;;;;;;;;;5057787;28;19916;-26
2023/09/03 14:53:29;;;;;;;;;;;;;;;;;;5057664;28;19936;-25
2023/09/03 14:55:55;;;;;;;;;;;;;;;;;;5057300;28;19971;-26
2023/09/03 14:58:23;;;;;;;;;;;;;;;;;;5057681;28;19909;-23
2023/09/03 15:00:49;;;;;;;;;;;;;;;;;;5057579;28;19909;-25
2023/09/03 15:03:15;;;;;;;;;;;;;;;;;;5057198;28;20366;-29
2023/09/03 15:05:41;;;;;;;;;;;;;;;;;;5057505;28;20424;-29
2023/09/03 15:08:07;;;;;;;;;;;;;;;;;;5057178;28;20323;-24
2023/09/03 15:10:33;;;;;;;;;;;;;;;;;;5057438;28;19909;-23
2023/09/03 15:12:59;;;;;;;;;;;;;;;;;;5056969;28;20011;-26
2023/09/03 15:15:25;;;;;;;;;;;;;;;;;;5057014;28;20015;-25
2023/09/03 15:17:51;;;;;;;;;;;;;;;;;;5057317;28;20328;-22
2023/09/03 15:20:17;;;;;;;;;;;;;;;;;;5057226;28;19975;-20
2023/09/03 15:22:43;;;;;;;;;;;;;;;;;;5057119;28;19909;-29
2023/09/03 15:25:09;;;;;;;;;;;;;;;;;;5056875;28;20197;-27
2023/09/03 15:27:34;;;;;;;;;;;;;;;;;;5056784;28;19924;-25
2023/09/03 15:30:00;;;;;;;;;;;;;;;;;;5057064;28;19909;-23
2023/09/03 15:32:26;;;;;;;;;;;;;;;;;;5056671;28;19938;-25
2023/09/03 15:34:52;;;;;;;;;;;;;;;;;;5056831;28;19909;-23
2023/09/03 15:37:18;;;;;;;;;;;;;;;;;;5056941;28;20390;-25
2023/09/03 15:39:44;;;;;;;;;;;;;;;;;;5056573;28;19986;-23
2023/09/03 15:42:10;;;;;;;;;;;;;;;;;;5056176;28;19909;-28
2023/09/03 15:44:36;;;;;;;;;;;;;;;;;;5056501;28;19986;-28
2023/09/03 15:47:02;;;;;;;;;;;;;;;;;;5056947;28;19913;-25
2023/09/03 15:49:28;;;;;;;;;;;;;;;;;;5056652;28;20299;-27
2023/09/03 15:51:54;;;;;;;;;;;;;;;;;;5056510;28;19959;-25
2023/09/03 15:54:24;;;;;;;;;;;;;;;;;;5056310;28;19909;-25
2023/09/03 15:56:52;;;;;;;;;;;;;;;;;;5056311;28;19924;-28
2023/09/03 15:59:19;;;;;;;;;;;;;;;;;;5056301;28;19920;-25
2023/09/03 16:01:45;;;;;;;;;;;;;;;;;;5056172;28;19909;-23
2023/09/03 16:04:11;;;;;;;;;;;;;;;;;;5056334;28;20007;-25
2023/09/03 16:06:37;;;;;;;;;;;;;;;;;;5055202;28;20039;-25
2023/09/03 16:09:04;;;;;;;;;;;;;;;;;;5056043;28;20004;-25
2023/09/03 16:11:30;;;;;;;;;;;;;;;;;;5056011;28;19909;-24
2023/09/03 16:13:56;;;;;;;;;;;;;;;;;;5055870;28;19909;-29
2023/09/03 16:16:22;;;;;;;;;;;;;;;;;;5055896;28;19920;-26
2023/09/03 16:18:50;;;;;;;;;;;;;;;;;;5056106;28;19944;-25
2023/09/03 16:21:16;;;;;;;;;;;;;;;;;;5056062;28;19909;-28
2023/09/03 16:23:42;;;;;;;;;;;;;;;;;;5055796;28;20350;-27
2023/09/03 16:26:08;;;;;;;;;;;;;;;;;;5055949;28;19908;-30
2023/09/03 16:28:34;;;;;;;;;;;;;;;;;;5055911;28;20244;-27
2023/09/03 16:31:00;;;;;;;;;;;;;;;;;;5054642;28;19958;-25
2023/09/03 16:33:26;;;;;;;;;;;;;;;;;;5055630;28;19921;-29
2023/09/03 16:35:52;;;;;;;;;;;;;;;;;;5055752;28;19916;-24
2023/09/03 16:38:18;;;;;;;;;;;;;;;;;;5055488;28;19908;-25